createdAt,value
2022-08-25T00:01:43.857Z,23.86
2022-08-25T00:04:13.892Z,23.84
2022-08-25T00:06:42.634Z,23.81
2022-08-25T00:09:12.061Z,23.79
2022-08-25T00:11:40.040Z,23.75
2022-08-25T00:14:12.021Z,23.72
2022-08-25T00:16:39.311Z,23.66
2022-08-25T00:19:10.899Z,23.64
2022-08-25T00:21:38.093Z,23.63
2022-08-25T00:24:05.939Z,23.59
2022-08-25T00:26:32.508Z,23.56
2022-08-25T00:29:01.656Z,23.52
2022-08-25T00:31:38.879Z,23.46
2022-08-25T00:34:12.673Z,23.39
2022-08-25T00:36:39.561Z,23.37
2022-08-25T00:39:08.449Z,23.36
2022-08-25T00:41:36.719Z,23.35
2022-08-25T00:44:07.943Z,23.33
2022-08-25T00:46:49.865Z,23.29
2022-08-25T00:49:25.455Z,23.23
2022-08-25T00:52:09.216Z,23.20
2022-08-25T00:54:44.778Z,23.19
2022-08-25T00:57:13.944Z,23.17
2022-08-25T00:59:42.914Z,23.12
2022-08-25T01:02:13.652Z,23.10
2022-08-25T01:04:48.604Z,23.07
2022-08-25T01:07:18.711Z,23.03
2022-08-25T01:09:47.731Z,23.00
2022-08-25T01:12:15.111Z,22.96
2022-08-25T01:14:45.997Z,22.93
2022-08-25T01:17:14.006Z,22.89
2022-08-25T01:19:40.698Z,22.86
2022-08-25T01:22:07.932Z,22.84
2022-08-25T01:24:53.567Z,22.80
2022-08-25T01:27:20.381Z,22.74
2022-08-25T01:29:46.949Z,22.70
2022-08-25T01:32:14.928Z,22.67
2022-08-25T01:34:45.281Z,22.64
2022-08-25T01:37:14.631Z,22.63
2022-08-25T01:39:42.804Z,22.60
2022-08-25T01:42:34.657Z,22.59
2022-08-25T01:45:01.232Z,22.57
2022-08-25T01:47:27.854Z,22.55
2022-08-25T01:49:54.408Z,22.52
2022-08-25T01:52:25.119Z,22.49
2022-08-25T01:54:51.867Z,22.44
2022-08-25T01:57:18.524Z,22.42
2022-08-25T01:59:46.071Z,22.38
2022-08-25T02:02:12.801Z,22.35
2022-08-25T02:04:40.790Z,22.33
2022-08-25T02:07:11.313Z,22.32
2022-08-25T02:09:38.429Z,22.31
2022-08-25T02:12:05.433Z,22.26
2022-08-25T02:14:32.297Z,22.22
2022-08-25T02:16:58.854Z,22.17
2022-08-25T02:19:26.447Z,22.15
2022-08-25T02:21:53.643Z,22.11
2022-08-25T02:24:20.414Z,22.08
2022-08-25T02:26:47.040Z,22.04
2022-08-25T02:29:13.933Z,22.04
2022-08-25T02:31:40.710Z,22.02
2022-08-25T02:34:07.705Z,22.01
2022-08-25T02:36:34.641Z,21.98
2022-08-25T02:39:01.556Z,21.97
2022-08-25T02:41:31.266Z,21.94
2022-08-25T02:43:59.366Z,21.94
2022-08-25T02:46:28.032Z,21.92
2022-08-25T02:48:55.265Z,21.88
2022-08-25T02:51:23.823Z,21.86
2022-08-25T02:53:51.017Z,21.84
2022-08-25T02:56:18.930Z,21.82
2022-08-25T02:58:46.781Z,21.80
2022-08-25T03:01:14.516Z,21.78
2022-08-25T03:03:44.364Z,21.78
2022-08-25T03:06:13.963Z,21.74
2022-08-25T03:08:42.205Z,21.68
2022-08-25T03:11:09.591Z,21.66
2022-08-25T03:13:37.101Z,21.62
2022-08-25T03:16:05.517Z,21.61
2022-08-25T03:18:39.494Z,21.58
2022-08-25T03:21:07.453Z,21.56
2022-08-25T03:23:34.577Z,21.55
2022-08-25T03:26:19.811Z,21.53
2022-08-25T03:28:46.383Z,21.52
2022-08-25T03:31:13.374Z,21.50
2022-08-25T03:33:40.217Z,21.49
2022-08-25T03:36:08.575Z,21.46
2022-08-25T03:38:38.343Z,21.44
2022-08-25T03:41:34.910Z,21.42
2022-08-25T03:44:04.035Z,21.40
2022-08-25T03:46:35.288Z,21.38
2022-08-25T03:49:03.448Z,21.38
2022-08-25T03:51:36.460Z,21.34
2022-08-25T03:54:04.688Z,21.33
2022-08-25T03:56:31.691Z,21.33
2022-08-25T03:58:58.383Z,21.32
2022-08-25T04:01:26.133Z,21.34
2022-08-25T04:03:53.337Z,21.32
2022-08-25T04:06:21.722Z,21.29
2022-08-25T04:08:48.935Z,21.28
2022-08-25T04:11:20.727Z,21.26
2022-08-25T04:13:48.011Z,21.25
2022-08-25T04:16:18.677Z,21.24
2022-08-25T04:18:47.681Z,21.23
2022-08-25T04:21:14.787Z,21.23
2022-08-25T04:23:43.260Z,21.19
2022-08-25T04:26:13.250Z,21.19
2022-08-25T04:28:40.804Z,21.18
2022-08-25T04:31:09.297Z,21.17
2022-08-25T04:33:38.180Z,21.14
2022-08-25T04:36:11.481Z,21.13
2022-08-25T04:38:40.613Z,21.12
2022-08-25T04:41:08.796Z,21.11
2022-08-25T04:43:36.824Z,21.11
2022-08-25T04:46:08.601Z,21.13
2022-08-25T04:48:35.424Z,21.14
2022-08-25T04:51:11.132Z,21.18
2022-08-25T04:53:38.582Z,21.19
2022-08-25T04:56:10.741Z,21.19
2022-08-25T04:58:38.042Z,21.20
2022-08-25T05:01:07.201Z,21.23
2022-08-25T05:03:34.050Z,21.25
2022-08-25T05:06:01.136Z,21.28
2022-08-25T05:08:28.280Z,21.30
2022-08-25T05:10:56.730Z,21.30
2022-08-25T05:13:25.346Z,21.34
2022-08-25T05:16:02.295Z,21.36
2022-08-25T05:18:31.434Z,21.40
2022-08-25T05:21:02.941Z,21.41
2022-08-25T05:23:30.054Z,21.45
2022-08-25T05:26:02.921Z,21.47
2022-08-25T05:28:29.962Z,21.50
2022-08-25T05:31:02.501Z,21.54
2022-08-25T05:33:30.590Z,21.74
2022-08-25T05:35:59.087Z,22.32
2022-08-25T05:38:25.991Z,22.90
2022-08-25T05:41:21.200Z,23.35
2022-08-25T05:43:49.414Z,23.21
2022-08-25T05:46:17.934Z,23.38
2022-08-25T05:48:45.251Z,23.48
2022-08-25T05:51:14.935Z,23.88
2022-08-25T05:53:44.064Z,24.52
2022-08-25T05:56:10.963Z,25.06
2022-08-25T05:58:38.077Z,25.60
2022-08-25T06:01:34.524Z,26.01
2022-08-25T06:04:01.275Z,26.44
2022-08-25T06:06:27.884Z,26.73
2022-08-25T06:08:54.578Z,27.04
2022-08-25T06:11:21.148Z,27.24
2022-08-25T06:13:47.767Z,27.49
2022-08-25T06:16:14.355Z,27.76
2022-08-25T06:18:41.085Z,28.04
2022-08-25T06:21:13.234Z,28.29
2022-08-25T06:23:40.540Z,28.46
2022-08-25T06:26:09.765Z,28.63
2022-08-25T06:28:40.524Z,28.74
2022-08-25T06:31:07.256Z,28.86
2022-08-25T06:33:33.997Z,29.02
2022-08-25T06:36:01.061Z,29.30
2022-08-25T06:38:27.913Z,29.37
2022-08-25T06:40:57.454Z,29.36
2022-08-25T06:43:24.294Z,29.49
2022-08-25T06:45:50.984Z,29.69
2022-08-25T06:48:17.835Z,29.79
2022-08-25T06:50:44.846Z,29.77
2022-08-25T06:53:11.960Z,29.74
2022-08-25T06:55:39.465Z,29.90
2022-08-25T06:58:06.521Z,30.06
2022-08-25T07:00:37.625Z,30.32
2022-08-25T07:03:05.016Z,30.58
2022-08-25T07:05:42.922Z,30.50
2022-08-25T07:08:11.976Z,30.48
2022-08-25T07:10:39.081Z,30.44
2022-08-25T07:13:05.752Z,30.47
2022-08-25T07:15:32.361Z,30.66
2022-08-25T07:17:59.141Z,30.86
2022-08-25T07:22:57.889Z,31.04
2022-08-25T07:25:24.876Z,31.15
2022-08-25T07:27:53.848Z,31.11
2022-08-25T07:30:23.740Z,31.35
2022-08-25T07:35:37.962Z,31.51
2022-08-25T07:38:09.044Z,31.54
2022-08-25T07:40:38.455Z,31.72
2022-08-25T07:43:10.315Z,31.85
2022-08-25T07:45:49.019Z,31.87
2022-08-25T07:48:16.428Z,31.85
2022-08-25T07:50:46.575Z,31.84
2022-08-25T07:53:15.017Z,31.91
2022-08-25T07:55:42.706Z,32.04
2022-08-25T07:58:12.333Z,32.11
2022-08-25T08:00:40.837Z,32.01
2022-08-25T08:03:12.814Z,31.81
2022-08-25T08:05:50.671Z,31.46
2022-08-25T08:08:17.462Z,31.39
2022-08-25T08:11:04.365Z,31.34
2022-08-25T08:13:35.730Z,31.27
2022-08-25T08:16:13.174Z,31.10
2022-08-25T08:18:40.506Z,30.97
2022-08-25T08:21:19.941Z,30.88
2022-08-25T08:23:48.497Z,30.73
2022-08-25T08:26:17.018Z,30.80
2022-08-25T08:28:43.765Z,30.93
2022-08-25T08:31:10.623Z,30.96
2022-08-25T08:33:40.862Z,30.95
2022-08-25T08:36:11.765Z,30.84
2022-08-25T08:38:41.205Z,30.86
2022-08-25T08:44:44.088Z,31.01
2022-08-25T08:47:36.219Z,31.06
2022-08-25T08:50:06.818Z,31.04
2022-08-25T08:52:48.819Z,31.07
2022-08-25T08:55:32.611Z,31.17
2022-08-25T08:58:03.076Z,31.22
2022-08-25T09:00:32.245Z,31.28
2022-08-25T09:03:06.296Z,31.20
2022-08-25T09:05:46.785Z,31.15
2022-08-25T09:08:20.403Z,30.98
2022-08-25T09:10:54.219Z,30.85
2022-08-25T09:13:38.892Z,30.95
2022-08-25T09:16:33.938Z,31.08
2022-08-25T09:19:21.356Z,31.17
2022-08-25T09:22:02.246Z,31.19
2022-08-25T09:24:35.020Z,31.08
2022-08-25T09:27:46.008Z,31.11
2022-08-25T09:30:18.471Z,31.05
2022-08-25T09:32:53.660Z,31.10
2022-08-25T09:35:22.551Z,31.28
2022-08-25T09:38:15.775Z,31.40
2022-08-25T09:40:46.426Z,31.50
2022-08-25T09:43:21.011Z,31.64
2022-08-25T09:45:56.150Z,31.72
2022-08-25T09:48:30.650Z,31.73
2022-08-25T09:51:10.176Z,31.80
2022-08-25T09:53:42.510Z,31.92
2022-08-25T09:56:10.125Z,31.95
2022-08-25T09:58:38.305Z,31.97
2022-08-25T10:01:22.421Z,31.97
2022-08-25T10:03:58.256Z,31.91
2022-08-25T10:06:25.965Z,31.95
2022-08-25T10:08:57.659Z,32.03
2022-08-25T10:11:37.985Z,32.13
2022-08-25T10:14:28.776Z,32.23
2022-08-25T10:17:27.484Z,32.32
2022-08-25T10:20:14.751Z,32.37
2022-08-25T10:22:43.476Z,32.29
2022-08-25T10:25:14.932Z,32.23
2022-08-25T10:28:23.974Z,32.09
2022-08-25T10:31:06.793Z,31.99
2022-08-25T10:33:45.543Z,31.98
2022-08-25T10:36:38.329Z,32.07
2022-08-25T10:39:33.896Z,32.14
2022-08-25T10:42:29.418Z,32.25
2022-08-25T10:45:34.781Z,32.41
2022-08-25T10:48:23.345Z,32.52
2022-08-25T10:51:01.696Z,32.54
2022-08-25T10:53:54.803Z,32.67
2022-08-25T10:56:28.593Z,32.80
2022-08-25T10:59:18.260Z,32.85
2022-08-25T11:01:56.514Z,32.85
2022-08-25T11:04:50.515Z,32.93
2022-08-25T11:07:25.420Z,32.79
2022-08-25T11:09:55.011Z,32.78
2022-08-25T11:12:24.528Z,32.72
2022-08-25T11:15:00.317Z,32.66
2022-08-25T11:17:40.090Z,32.71
2022-08-25T11:20:19.833Z,32.71
2022-08-25T11:23:14.864Z,32.68
2022-08-25T11:25:52.132Z,32.69
2022-08-25T11:28:47.130Z,32.58
2022-08-25T11:31:15.667Z,32.56
2022-08-25T11:33:43.656Z,32.64
2022-08-25T11:36:30.903Z,32.78
2022-08-25T11:39:40.616Z,32.89
2022-08-25T11:42:19.785Z,32.94
2022-08-25T11:45:07.778Z,32.95
2022-08-25T11:47:37.711Z,33.01
2022-08-25T11:50:09.597Z,33.07
2022-08-25T11:52:43.301Z,33.17
2022-08-25T11:55:23.156Z,33.22
2022-08-25T11:57:53.566Z,33.30
2022-08-25T12:00:42.812Z,33.32
2022-08-25T12:03:37.265Z,33.12
2022-08-25T12:06:27.274Z,33.04
2022-08-25T12:08:59.587Z,33.05
2022-08-25T12:11:42.357Z,32.98
2022-08-25T12:14:24.563Z,33.02
2022-08-25T12:16:54.950Z,33.06
2022-08-25T12:19:35.483Z,33.14
2022-08-25T12:22:03.614Z,33.23
2022-08-25T12:24:48.336Z,33.22
2022-08-25T12:27:33.573Z,33.27
2022-08-25T12:30:21.929Z,33.31
2022-08-25T12:33:09.534Z,33.17
2022-08-25T12:35:49.635Z,33.23
2022-08-25T12:38:42.509Z,33.18
2022-08-25T12:41:24.866Z,33.16
2022-08-25T12:43:54.470Z,33.22
2022-08-25T12:46:21.084Z,33.34
2022-08-25T12:49:11.344Z,33.45
2022-08-25T12:52:00.684Z,33.33
2022-08-25T12:54:39.581Z,33.35
2022-08-25T12:57:43.226Z,33.45
2022-08-25T13:00:37.512Z,33.45
2022-08-25T13:03:22.883Z,33.39
2022-08-25T13:06:22.657Z,33.34
2022-08-25T13:09:13.491Z,33.43
2022-08-25T13:11:53.297Z,33.43
2022-08-25T13:14:39.144Z,33.38
2022-08-25T13:17:06.914Z,33.41
2022-08-25T13:19:37.038Z,33.44
2022-08-25T13:22:16.317Z,33.39
2022-08-25T13:24:45.096Z,33.32
2022-08-25T13:27:41.062Z,33.29
2022-08-25T13:30:08.402Z,33.38
2022-08-25T13:32:36.833Z,33.44
2022-08-25T13:35:12.272Z,33.40
2022-08-25T13:37:41.028Z,33.44
2022-08-25T13:40:19.771Z,33.41
2022-08-25T13:43:01.266Z,33.41
2022-08-25T13:45:31.776Z,33.46
2022-08-25T13:47:59.680Z,33.46
2022-08-25T13:50:26.983Z,33.49
2022-08-25T13:53:14.772Z,33.43
2022-08-25T13:55:51.515Z,33.39
2022-08-25T13:58:38.869Z,33.38
2022-08-25T14:01:48.915Z,33.35
2022-08-25T14:04:27.313Z,33.37
2022-08-25T14:07:07.337Z,33.32
2022-08-25T14:10:01.327Z,33.32
2022-08-25T14:12:34.912Z,33.33
2022-08-25T14:15:04.276Z,33.29
2022-08-25T14:17:40.332Z,33.27
2022-08-25T14:20:29.160Z,33.29
2022-08-25T14:23:09.874Z,33.32
2022-08-25T14:25:37.369Z,33.37
2022-08-25T14:28:13.650Z,33.30
2022-08-25T14:30:46.506Z,33.18
2022-08-25T14:33:15.053Z,33.20
2022-08-25T14:35:45.858Z,33.20
2022-08-25T14:38:14.334Z,33.17
2022-08-25T14:40:41.727Z,33.16
2022-08-25T14:43:09.590Z,33.16
2022-08-25T14:45:39.125Z,33.08
2022-08-25T14:48:18.044Z,33.04
2022-08-25T14:50:45.506Z,33.02
2022-08-25T14:53:12.460Z,32.96
2022-08-25T14:55:39.852Z,32.88
2022-08-25T14:58:07.680Z,32.85
2022-08-25T15:00:42.975Z,32.82
2022-08-25T15:03:16.622Z,32.82
2022-08-25T15:05:44.944Z,32.82
2022-08-25T15:08:33.264Z,32.75
2022-08-25T15:11:00.122Z,32.76
2022-08-25T15:13:27.502Z,32.75
2022-08-25T15:15:54.943Z,32.72
2022-08-25T15:18:25.877Z,32.74
2022-08-25T15:20:52.924Z,32.65
2022-08-25T15:23:19.997Z,32.58
2022-08-25T15:25:49.105Z,32.53
2022-08-25T15:28:21.943Z,32.53
2022-08-25T15:30:49.362Z,32.56
2022-08-25T15:33:15.982Z,32.61
2022-08-25T15:35:43.473Z,32.63
2022-08-25T15:38:12.005Z,32.65
2022-08-25T15:40:39.738Z,32.58
2022-08-25T15:43:07.044Z,32.55
2022-08-25T15:45:36.057Z,32.52
2022-08-25T15:48:04.441Z,32.41
2022-08-25T15:50:33.597Z,32.38
2022-08-25T15:53:01.706Z,32.36
2022-08-25T15:55:28.364Z,32.37
2022-08-25T15:57:56.315Z,32.33
2022-08-25T16:00:23.180Z,32.29
2022-08-25T16:02:50.309Z,32.25
2022-08-25T16:05:17.189Z,32.26
2022-08-25T16:07:46.211Z,32.25
2022-08-25T16:10:18.637Z,32.23
2022-08-25T16:12:46.099Z,32.19
2022-08-25T16:15:12.915Z,32.14
2022-08-25T16:17:40.804Z,32.12
2022-08-25T16:20:12.656Z,32.12
2022-08-25T16:22:40.805Z,32.09
2022-08-25T16:25:08.141Z,32.06
2022-08-25T16:27:38.773Z,32.03
2022-08-25T16:30:14.980Z,31.98
2022-08-25T16:32:44.469Z,31.91
2022-08-25T16:35:11.463Z,31.89
2022-08-25T16:37:38.237Z,31.86
2022-08-25T16:40:08.181Z,31.83
2022-08-25T16:42:35.611Z,31.81
2022-08-25T16:45:02.158Z,31.79
2022-08-25T16:47:37.089Z,31.76
2022-08-25T16:50:06.792Z,31.73
2022-08-25T16:52:51.928Z,31.67
2022-08-25T16:55:20.861Z,31.65
2022-08-25T16:57:56.276Z,31.64
2022-08-25T17:00:25.914Z,31.61
2022-08-25T17:03:00.580Z,31.55
2022-08-25T17:05:29.242Z,31.53
2022-08-25T17:08:17.656Z,31.48
2022-08-25T17:10:44.271Z,31.41
2022-08-25T17:13:12.907Z,31.39
2022-08-25T17:15:46.914Z,31.35
2022-08-25T17:18:13.783Z,31.30
2022-08-25T17:20:45.310Z,31.27
2022-08-25T17:23:13.066Z,31.22
2022-08-25T17:25:42.938Z,31.19
2022-08-25T17:28:11.925Z,31.13
2022-08-25T17:30:39.482Z,31.08
2022-08-25T17:33:06.775Z,31.06
2022-08-25T17:35:39.534Z,31.00
2022-08-25T17:38:06.469Z,30.93
2022-08-25T17:40:34.101Z,30.88
2022-08-25T17:43:01.832Z,30.84
2022-08-25T17:45:28.428Z,30.78
2022-08-25T17:47:55.189Z,30.74
2022-08-25T17:50:21.973Z,30.70
2022-08-25T17:52:49.134Z,30.64
2022-08-25T17:55:15.836Z,30.60
2022-08-25T17:57:42.439Z,30.53
2022-08-25T18:00:12.093Z,30.49
2022-08-25T18:02:40.356Z,30.43
2022-08-25T18:05:07.531Z,30.36
2022-08-25T18:07:34.091Z,30.29
2022-08-25T18:10:02.092Z,30.22
2022-08-25T18:12:28.849Z,30.16
2022-08-25T18:14:55.467Z,30.07
2022-08-25T18:17:23.078Z,29.98
2022-08-25T18:19:49.667Z,29.90
2022-08-25T18:22:21.337Z,29.81
2022-08-25T18:24:48.074Z,29.71
2022-08-25T18:27:14.660Z,29.62
2022-08-25T18:29:41.843Z,29.53
2022-08-25T18:32:09.746Z,29.46
2022-08-25T18:34:39.040Z,29.39
2022-08-25T18:37:25.529Z,29.33
2022-08-25T18:40:10.652Z,29.24
2022-08-25T18:42:37.313Z,29.13
2022-08-25T18:45:08.089Z,29.04
2022-08-25T18:47:39.030Z,28.96
2022-08-25T18:50:06.961Z,28.86
2022-08-25T18:52:34.806Z,28.81
2022-08-25T18:55:01.753Z,28.74
2022-08-25T18:57:28.367Z,28.64
2022-08-25T18:59:55.451Z,28.58
2022-08-25T19:02:22.224Z,28.52
2022-08-25T19:04:52.662Z,28.46
2022-08-25T19:07:19.738Z,28.38
2022-08-25T19:09:46.560Z,28.28
2022-08-25T19:12:22.186Z,28.18
2022-08-25T19:14:49.687Z,28.09
2022-08-25T19:17:17.183Z,28.05
2022-08-25T19:19:44.127Z,28.03
2022-08-25T19:22:31.707Z,27.95
2022-08-25T19:24:58.235Z,27.88
2022-08-25T19:27:25.214Z,27.82
2022-08-25T19:29:52.445Z,27.77
2022-08-25T19:32:19.935Z,27.67
2022-08-25T19:34:47.358Z,27.61
2022-08-25T19:37:19.442Z,27.53
2022-08-25T19:39:52.900Z,27.43
2022-08-25T19:42:37.336Z,27.31
2022-08-25T19:45:07.661Z,27.14
2022-08-25T19:47:34.741Z,27.10
2022-08-25T19:50:01.556Z,27.06
2022-08-25T19:52:28.828Z,27.04
2022-08-25T19:54:55.931Z,27.02
2022-08-25T19:57:28.169Z,27.00
2022-08-25T20:00:14.047Z,26.92
2022-08-25T20:02:40.994Z,26.86
2022-08-25T20:05:07.760Z,26.82
2022-08-25T20:07:35.193Z,26.77
2022-08-25T20:10:02.394Z,26.73
2022-08-25T20:12:29.631Z,26.70
2022-08-25T20:14:57.279Z,26.67
2022-08-25T20:17:26.115Z,26.67
2022-08-25T20:19:59.048Z,26.63
2022-08-25T20:22:28.140Z,26.54
2022-08-25T20:25:13.173Z,26.48
2022-08-25T20:27:46.884Z,26.46
2022-08-25T20:30:26.827Z,26.42
2022-08-25T20:32:55.939Z,26.40
2022-08-25T20:35:26.774Z,26.38
2022-08-25T20:37:54.893Z,26.32
2022-08-25T20:40:25.835Z,26.27
2022-08-25T20:42:53.536Z,26.20
2022-08-25T20:45:24.116Z,26.12
2022-08-25T20:47:51.297Z,26.08
2022-08-25T20:50:18.251Z,26.05
2022-08-25T20:52:44.845Z,26.02
2022-08-25T20:55:12.407Z,25.98
2022-08-25T20:57:40.373Z,25.93
2022-08-25T21:00:09.343Z,25.91
2022-08-25T21:02:36.124Z,25.88
2022-08-25T21:05:21.583Z,25.87
2022-08-25T21:07:48.403Z,25.83
2022-08-25T21:10:16.920Z,25.79
2022-08-25T21:12:45.010Z,25.75
2022-08-25T21:15:17.942Z,25.71
2022-08-25T21:17:50.729Z,25.65
2022-08-25T21:20:18.426Z,25.60
2022-08-25T21:22:44.997Z,25.58
2022-08-25T21:25:11.938Z,25.52
2022-08-25T21:27:38.718Z,25.47
2022-08-25T21:30:07.162Z,25.42
2022-08-25T21:32:34.819Z,25.33
2022-08-25T21:35:01.741Z,25.28
2022-08-25T21:37:28.594Z,25.26
2022-08-25T21:39:55.208Z,25.23
2022-08-25T21:42:23.990Z,25.23
2022-08-25T21:44:52.295Z,25.22
2022-08-25T21:47:21.191Z,25.17
2022-08-25T21:49:48.891Z,25.12
2022-08-25T21:52:15.904Z,25.08
2022-08-25T21:54:43.793Z,25.04
2022-08-25T21:57:11.772Z,25.00
2022-08-25T21:59:41.041Z,24.98
2022-08-25T22:02:10.027Z,24.92
2022-08-25T22:04:38.921Z,24.87
2022-08-25T22:07:06.742Z,24.83
2022-08-25T22:09:33.785Z,24.79
2022-08-25T22:12:00.545Z,24.77
2022-08-25T22:14:27.785Z,24.74
2022-08-25T22:16:55.510Z,24.73
2022-08-25T22:19:23.017Z,24.70
2022-08-25T22:21:50.861Z,24.68
2022-08-25T22:24:18.161Z,24.65
2022-08-25T22:26:47.518Z,24.62
2022-08-25T22:29:20.195Z,24.58
2022-08-25T22:31:53.094Z,24.53
2022-08-25T22:34:30.697Z,24.49
2022-08-25T22:36:59.741Z,24.43
2022-08-25T22:39:27.214Z,24.41
2022-08-25T22:41:53.926Z,24.40
2022-08-25T22:44:20.512Z,24.39
2022-08-25T22:46:47.057Z,24.37
2022-08-25T22:49:13.956Z,24.35
2022-08-25T22:51:41.053Z,24.32
2022-08-25T22:54:09.600Z,24.29
2022-08-25T22:56:38.924Z,24.22
2022-08-25T22:59:10.504Z,24.10
2022-08-25T23:01:37.582Z,24.02
2022-08-25T23:04:07.265Z,23.97
2022-08-25T23:06:34.808Z,23.95
2022-08-25T23:09:04.585Z,23.93
2022-08-25T23:11:31.514Z,23.94
2022-08-25T23:14:05.453Z,23.96
2022-08-25T23:16:33.229Z,23.99
2022-08-25T23:19:00.720Z,23.98
2022-08-25T23:21:46.453Z,23.95
2022-08-25T23:24:14.926Z,23.93
2022-08-25T23:26:57.424Z,23.91
2022-08-25T23:29:25.170Z,23.89
2022-08-25T23:31:52.127Z,23.83
2022-08-25T23:34:21.725Z,23.80
2022-08-25T23:36:50.389Z,23.74
2022-08-25T23:39:17.367Z,23.69
2022-08-25T23:41:44.439Z,23.62
2022-08-25T23:44:11.550Z,23.55
2022-08-25T23:46:44.451Z,23.51
2022-08-25T23:49:11.318Z,23.45
2022-08-25T23:51:38.141Z,23.39
2022-08-25T23:54:09.417Z,23.35
2022-08-25T23:56:44.413Z,23.25
2022-08-25T23:59:13.126Z,23.18
